Terminal Aerodrome Forecast
Issued by NWS

Home | Current Version | Previous Version | Text Only | Print | Product List | Glossary On
Versions: 1 2 3 4 5 6 7 8 9 10 11 12 13 14 15 16
000
FTUS45 KBOI 260520
TAFMYL
TAF
KMYL 260520Z 2606/2706 VRB03KT P6SM VCSH BKN050 OVC080
     FM260800 VRB04KT 5SM -RA BR SCT012 OVC020
     FM261800 VRB03KT 5SM -RA BR BKN007 OVC012=

USA.gov is the U.S. government's official web portal to all federal, state and local government web resources and services.